sensor_id;sensor_type;location;lat;lon;timestamp;P1;durP1;ratioP1;P2;durP2;ratioP2
76065;SDS011;64763;48.928;8.474;2023-09-08T00:00:37;7.70;;;4.67;;
76065;SDS011;64763;48.928;8.474;2023-09-08T00:03:02;6.80;;;5.03;;
76065;SDS011;64763;48.928;8.474;2023-09-08T00:05:27;7.60;;;4.85;;
76065;SDS011;64763;48.928;8.474;2023-09-08T00:07:53;7.43;;;5.73;;
76065;SDS011;64763;48.928;8.474;2023-09-08T00:10:18;6.60;;;5.20;;
76065;SDS011;64763;48.928;8.474;2023-09-08T00:12:43;7.50;;;4.83;;
76065;SDS011;64763;48.928;8.474;2023-09-08T00:15:09;7.93;;;5.13;;
76065;SDS011;64763;48.928;8.474;2023-09-08T00:17:34;7.45;;;5.30;;
76065;SDS011;64763;48.928;8.474;2023-09-08T00:20:01;7.65;;;5.82;;
76065;SDS011;64763;48.928;8.474;2023-09-08T00:22:26;7.87;;;5.87;;
76065;SDS011;64763;48.928;8.474;2023-09-08T00:24:51;7.47;;;5.57;;
76065;SDS011;64763;48.928;8.474;2023-09-08T00:27:17;10.07;;;5.67;;
76065;SDS011;64763;48.928;8.474;2023-09-08T00:29:42;8.33;;;5.27;;
76065;SDS011;64763;48.928;8.474;2023-09-08T00:32:07;8.03;;;5.60;;
76065;SDS011;64763;48.928;8.474;2023-09-08T00:34:32;8.53;;;5.40;;
76065;SDS011;64763;48.928;8.474;2023-09-08T00:36:57;10.40;;;6.50;;
76065;SDS011;64763;48.928;8.474;2023-09-08T00:39:23;6.53;;;5.37;;
76065;SDS011;64763;48.928;8.474;2023-09-08T00:41:48;9.37;;;6.20;;
76065;SDS011;64763;48.928;8.474;2023-09-08T00:44:13;7.63;;;5.53;;
76065;SDS011;64763;48.928;8.474;2023-09-08T00:46:39;8.93;;;6.03;;
76065;SDS011;64763;48.928;8.474;2023-09-08T00:49:04;7.07;;;5.00;;
76065;SDS011;64763;48.928;8.474;2023-09-08T00:51:30;9.23;;;5.55;;
76065;SDS011;64763;48.928;8.474;2023-09-08T00:53:55;7.53;;;5.38;;
76065;SDS011;64763;48.928;8.474;2023-09-08T00:56:21;7.83;;;6.00;;
76065;SDS011;64763;48.928;8.474;2023-09-08T00:58:46;8.63;;;5.53;;
76065;SDS011;64763;48.928;8.474;2023-09-08T01:01:11;8.98;;;5.93;;
76065;SDS011;64763;48.928;8.474;2023-09-08T01:03:37;8.98;;;5.68;;
76065;SDS011;64763;48.928;8.474;2023-09-08T01:06:03;6.93;;;5.65;;
76065;SDS011;64763;48.928;8.474;2023-09-08T01:08:28;8.05;;;5.43;;
76065;SDS011;64763;48.928;8.474;2023-09-08T01:10:54;8.80;;;5.70;;
76065;SDS011;64763;48.928;8.474;2023-09-08T01:13:19;8.15;;;6.05;;
76065;SDS011;64763;48.928;8.474;2023-09-08T01:15:44;9.07;;;5.57;;
76065;SDS011;64763;48.928;8.474;2023-09-08T01:18:10;7.87;;;5.57;;
76065;SDS011;64763;48.928;8.474;2023-09-08T01:20:52;8.30;;;5.83;;
76065;SDS011;64763;48.928;8.474;2023-09-08T01:23:32;7.28;;;5.53;;
76065;SDS011;64763;48.928;8.474;2023-09-08T01:26:04;7.72;;;5.65;;
76065;SDS011;64763;48.928;8.474;2023-09-08T01:28:29;7.47;;;5.57;;
76065;SDS011;64763;48.928;8.474;2023-09-08T01:30:56;6.85;;;5.40;;
76065;SDS011;64763;48.928;8.474;2023-09-08T01:33:21;8.35;;;6.50;;
76065;SDS011;64763;48.928;8.474;2023-09-08T01:35:47;7.97;;;6.03;;
76065;SDS011;64763;48.928;8.474;2023-09-08T01:38:12;8.52;;;5.75;;
76065;SDS011;64763;48.928;8.474;2023-09-08T01:40:37;7.77;;;6.17;;
76065;SDS011;64763;48.928;8.474;2023-09-08T01:43:02;8.23;;;5.40;;
76065;SDS011;64763;48.928;8.474;2023-09-08T01:45:28;9.77;;;6.10;;
76065;SDS011;64763;48.928;8.474;2023-09-08T01:47:53;7.57;;;5.47;;
76065;SDS011;64763;48.928;8.474;2023-09-08T01:50:18;8.33;;;5.87;;
76065;SDS011;64763;48.928;8.474;2023-09-08T01:52:47;7.88;;;6.10;;
76065;SDS011;64763;48.928;8.474;2023-09-08T01:55:12;7.53;;;6.03;;
76065;SDS011;64763;48.928;8.474;2023-09-08T01:57:38;8.43;;;6.13;;
76065;SDS011;64763;48.928;8.474;2023-09-08T02:00:03;8.67;;;6.00;;
76065;SDS011;64763;48.928;8.474;2023-09-08T02:02:28;8.60;;;5.78;;
76065;SDS011;64763;48.928;8.474;2023-09-08T02:04:54;7.70;;;6.37;;
76065;SDS011;64763;48.928;8.474;2023-09-08T02:07:19;9.20;;;6.00;;
76065;SDS011;64763;48.928;8.474;2023-09-08T02:09:44;9.13;;;6.80;;
76065;SDS011;64763;48.928;8.474;2023-09-08T02:12:09;7.10;;;5.72;;
76065;SDS011;64763;48.928;8.474;2023-09-08T02:14:35;9.70;;;5.90;;
76065;SDS011;64763;48.928;8.474;2023-09-08T02:17:00;8.57;;;5.90;;
76065;SDS011;64763;48.928;8.474;2023-09-08T02:19:25;8.48;;;6.07;;
76065;SDS011;64763;48.928;8.474;2023-09-08T02:21:50;8.83;;;5.90;;
76065;SDS011;64763;48.928;8.474;2023-09-08T02:24:16;7.77;;;5.50;;
76065;SDS011;64763;48.928;8.474;2023-09-08T02:26:41;8.83;;;5.50;;
76065;SDS011;64763;48.928;8.474;2023-09-08T02:29:06;8.93;;;5.77;;
76065;SDS011;64763;48.928;8.474;2023-09-08T02:31:32;8.90;;;6.22;;
76065;SDS011;64763;48.928;8.474;2023-09-08T02:33:58;10.23;;;6.32;;
76065;SDS011;64763;48.928;8.474;2023-09-08T02:36:23;9.17;;;5.93;;
76065;SDS011;64763;48.928;8.474;2023-09-08T02:38:51;8.73;;;6.78;;
76065;SDS011;64763;48.928;8.474;2023-09-08T02:41:17;9.77;;;6.30;;
76065;SDS011;64763;48.928;8.474;2023-09-08T02:43:42;11.45;;;6.45;;
76065;SDS011;64763;48.928;8.474;2023-09-08T02:46:07;8.50;;;6.17;;
76065;SDS011;64763;48.928;8.474;2023-09-08T02:48:34;8.88;;;6.45;;
76065;SDS011;64763;48.928;8.474;2023-09-08T02:50:59;11.30;;;7.50;;
76065;SDS011;64763;48.928;8.474;2023-09-08T02:53:24;11.13;;;6.90;;
76065;SDS011;64763;48.928;8.474;2023-09-08T02:55:56;13.32;;;6.80;;
76065;SDS011;64763;48.928;8.474;2023-09-08T02:58:21;9.85;;;6.80;;
76065;SDS011;64763;48.928;8.474;2023-09-08T03:00:47;11.02;;;6.97;;
76065;SDS011;64763;48.928;8.474;2023-09-08T03:03:12;10.23;;;7.17;;
76065;SDS011;64763;48.928;8.474;2023-09-08T03:05:37;11.63;;;7.00;;
76065;SDS011;64763;48.928;8.474;2023-09-08T03:08:03;7.90;;;5.97;;
76065;SDS011;64763;48.928;8.474;2023-09-08T03:10:28;8.88;;;6.50;;
76065;SDS011;64763;48.928;8.474;2023-09-08T03:12:53;8.27;;;6.78;;
76065;SDS011;64763;48.928;8.474;2023-09-08T03:15:18;8.10;;;5.80;;
76065;SDS011;64763;48.928;8.474;2023-09-08T03:17:44;10.60;;;6.40;;
76065;SDS011;64763;48.928;8.474;2023-09-08T03:20:09;9.30;;;6.87;;
76065;SDS011;64763;48.928;8.474;2023-09-08T03:22:34;9.77;;;6.85;;
76065;SDS011;64763;48.928;8.474;2023-09-08T03:25:00;8.33;;;6.80;;
76065;SDS011;64763;48.928;8.474;2023-09-08T03:27:25;9.60;;;6.83;;
76065;SDS011;64763;48.928;8.474;2023-09-08T03:29:50;9.40;;;6.87;;
76065;SDS011;64763;48.928;8.474;2023-09-08T03:32:15;9.47;;;6.40;;
76065;SDS011;64763;48.928;8.474;2023-09-08T03:34:40;12.47;;;6.50;;
76065;SDS011;64763;48.928;8.474;2023-09-08T03:37:06;11.83;;;6.73;;
76065;SDS011;64763;48.928;8.474;2023-09-08T03:39:31;9.33;;;6.07;;
76065;SDS011;64763;48.928;8.474;2023-09-08T03:41:56;12.70;;;7.20;;
76065;SDS011;64763;48.928;8.474;2023-09-08T03:44:21;8.07;;;5.97;;
76065;SDS011;64763;48.928;8.474;2023-09-08T03:46:46;10.20;;;6.50;;
76065;SDS011;64763;48.928;8.474;2023-09-08T03:49:12;10.40;;;6.37;;
76065;SDS011;64763;48.928;8.474;2023-09-08T03:51:37;10.30;;;6.90;;
76065;SDS011;64763;48.928;8.474;2023-09-08T03:54:02;8.63;;;6.20;;
76065;SDS011;64763;48.928;8.474;2023-09-08T03:56:28;8.45;;;6.70;;
76065;SDS011;64763;48.928;8.474;2023-09-08T03:58:53;8.80;;;6.27;;
76065;SDS011;64763;48.928;8.474;2023-09-08T04:01:18;9.23;;;6.67;;
76065;SDS011;64763;48.928;8.474;2023-09-08T04:03:44;8.60;;;6.30;;
76065;SDS011;64763;48.928;8.474;2023-09-08T04:06:09;7.83;;;6.37;;
76065;SDS011;64763;48.928;8.474;2023-09-08T04:08:34;10.40;;;6.70;;
76065;SDS011;64763;48.928;8.474;2023-09-08T04:10:59;9.87;;;6.57;;
76065;SDS011;64763;48.928;8.474;2023-09-08T04:13:24;10.23;;;7.00;;
76065;SDS011;64763;48.928;8.474;2023-09-08T04:15:50;9.38;;;6.97;;
76065;SDS011;64763;48.928;8.474;2023-09-08T04:18:15;8.67;;;6.37;;
76065;SDS011;64763;48.928;8.474;2023-09-08T04:20:40;10.02;;;6.90;;
76065;SDS011;64763;48.928;8.474;2023-09-08T04:23:06;9.47;;;6.93;;
76065;SDS011;64763;48.928;8.474;2023-09-08T04:25:31;11.30;;;7.40;;
76065;SDS011;64763;48.928;8.474;2023-09-08T04:27:56;9.67;;;6.73;;
76065;SDS011;64763;48.928;8.474;2023-09-08T04:30:21;10.10;;;7.47;;
76065;SDS011;64763;48.928;8.474;2023-09-08T04:32:46;9.73;;;6.70;;
76065;SDS011;64763;48.928;8.474;2023-09-08T04:35:12;9.30;;;7.27;;
76065;SDS011;64763;48.928;8.474;2023-09-08T04:37:37;8.57;;;6.53;;
76065;SDS011;64763;48.928;8.474;2023-09-08T04:40:04;10.07;;;6.78;;
76065;SDS011;64763;48.928;8.474;2023-09-08T04:42:30;10.73;;;7.03;;
76065;SDS011;64763;48.928;8.474;2023-09-08T04:44:56;12.43;;;7.32;;
76065;SDS011;64763;48.928;8.474;2023-09-08T04:47:24;12.82;;;8.32;;
76065;SDS011;64763;48.928;8.474;2023-09-08T04:49:50;9.88;;;7.47;;
76065;SDS011;64763;48.928;8.474;2023-09-08T04:52:15;11.60;;;7.77;;
76065;SDS011;64763;48.928;8.474;2023-09-08T04:54:40;10.40;;;7.23;;
76065;SDS011;64763;48.928;8.474;2023-09-08T04:57:05;11.40;;;7.63;;
76065;SDS011;64763;48.928;8.474;2023-09-08T04:59:31;11.30;;;7.73;;
76065;SDS011;64763;48.928;8.474;2023-09-08T05:01:57;11.13;;;7.38;;
76065;SDS011;64763;48.928;8.474;2023-09-08T05:04:22;13.80;;;7.90;;
76065;SDS011;64763;48.928;8.474;2023-09-08T05:06:48;10.37;;;7.63;;
76065;SDS011;64763;48.928;8.474;2023-09-08T05:09:13;11.07;;;7.93;;
76065;SDS011;64763;48.928;8.474;2023-09-08T05:11:38;13.32;;;8.23;;
76065;SDS011;64763;48.928;8.474;2023-09-08T05:14:04;11.07;;;8.17;;
76065;SDS011;64763;48.928;8.474;2023-09-08T05:16:29;10.75;;;7.82;;
76065;SDS011;64763;48.928;8.474;2023-09-08T05:19:11;10.57;;;7.50;;
76065;SDS011;64763;48.928;8.474;2023-09-08T05:21:37;10.38;;;7.53;;
76065;SDS011;64763;48.928;8.474;2023-09-08T05:24:03;11.00;;;6.97;;
76065;SDS011;64763;48.928;8.474;2023-09-08T05:26:28;11.05;;;7.65;;
76065;SDS011;64763;48.928;8.474;2023-09-08T05:28:54;13.27;;;8.35;;
76065;SDS011;64763;48.928;8.474;2023-09-08T05:31:19;11.30;;;7.57;;
76065;SDS011;64763;48.928;8.474;2023-09-08T05:33:44;11.63;;;7.43;;
76065;SDS011;64763;48.928;8.474;2023-09-08T05:36:12;11.73;;;8.55;;
76065;SDS011;64763;48.928;8.474;2023-09-08T05:38:37;13.05;;;8.57;;
76065;SDS011;64763;48.928;8.474;2023-09-08T05:41:02;10.73;;;7.47;;
76065;SDS011;64763;48.928;8.474;2023-09-08T05:43:27;10.80;;;7.40;;
76065;SDS011;64763;48.928;8.474;2023-09-08T05:45:53;9.37;;;7.17;;
76065;SDS011;64763;48.928;8.474;2023-09-08T05:48:18;10.53;;;7.20;;
76065;SDS011;64763;48.928;8.474;2023-09-08T05:50:43;12.03;;;8.13;;
76065;SDS011;64763;48.928;8.474;2023-09-08T05:53:08;9.97;;;7.23;;
76065;SDS011;64763;48.928;8.474;2023-09-08T05:55:33;11.10;;;7.47;;
76065;SDS011;64763;48.928;8.474;2023-09-08T05:57:59;12.63;;;7.73;;
76065;SDS011;64763;48.928;8.474;2023-09-08T06:00:24;10.27;;;6.60;;
76065;SDS011;64763;48.928;8.474;2023-09-08T06:02:49;10.37;;;7.10;;
76065;SDS011;64763;48.928;8.474;2023-09-08T06:05:15;10.70;;;7.10;;
76065;SDS011;64763;48.928;8.474;2023-09-08T06:07:40;11.13;;;7.40;;
76065;SDS011;64763;48.928;8.474;2023-09-08T06:10:05;9.97;;;7.17;;
76065;SDS011;64763;48.928;8.474;2023-09-08T06:12:30;11.50;;;7.53;;
76065;SDS011;64763;48.928;8.474;2023-09-08T06:14:56;12.47;;;7.97;;
76065;SDS011;64763;48.928;8.474;2023-09-08T06:17:21;9.40;;;7.27;;
76065;SDS011;64763;48.928;8.474;2023-09-08T06:19:46;12.03;;;7.33;;
76065;SDS011;64763;48.928;8.474;2023-09-08T06:22:11;10.40;;;7.50;;
76065;SDS011;64763;48.928;8.474;2023-09-08T06:24:36;9.20;;;7.20;;
76065;SDS011;64763;48.928;8.474;2023-09-08T06:27:02;11.37;;;7.57;;
76065;SDS011;64763;48.928;8.474;2023-09-08T06:29:27;12.65;;;6.95;;
76065;SDS011;64763;48.928;8.474;2023-09-08T06:31:52;9.30;;;7.38;;
76065;SDS011;64763;48.928;8.474;2023-09-08T06:34:18;10.90;;;7.03;;
76065;SDS011;64763;48.928;8.474;2023-09-08T06:36:46;9.95;;;6.80;;
76065;SDS011;64763;48.928;8.474;2023-09-08T06:39:11;9.07;;;6.83;;
76065;SDS011;64763;48.928;8.474;2023-09-08T06:41:37;12.75;;;7.25;;
76065;SDS011;64763;48.928;8.474;2023-09-08T06:44:03;9.47;;;6.67;;
76065;SDS011;64763;48.928;8.474;2023-09-08T06:46:28;9.87;;;6.97;;
76065;SDS011;64763;48.928;8.474;2023-09-08T06:48:53;10.27;;;7.20;;
76065;SDS011;64763;48.928;8.474;2023-09-08T06:51:18;10.60;;;7.00;;
76065;SDS011;64763;48.928;8.474;2023-09-08T06:53:44;9.95;;;7.22;;
76065;SDS011;64763;48.928;8.474;2023-09-08T06:56:09;9.30;;;6.63;;
76065;SDS011;64763;48.928;8.474;2023-09-08T06:58:34;10.90;;;7.37;;
76065;SDS011;64763;48.928;8.474;2023-09-08T07:00:59;10.53;;;7.53;;
76065;SDS011;64763;48.928;8.474;2023-09-08T07:03:25;11.87;;;7.00;;
76065;SDS011;64763;48.928;8.474;2023-09-08T07:05:51;12.32;;;7.53;;
76065;SDS011;64763;48.928;8.474;2023-09-08T07:08:17;14.10;;;6.63;;
76065;SDS011;64763;48.928;8.474;2023-09-08T07:10:43;18.30;;;8.07;;
76065;SDS011;64763;48.928;8.474;2023-09-08T07:13:08;14.95;;;7.72;;
76065;SDS011;64763;48.928;8.474;2023-09-08T07:15:33;15.83;;;7.00;;
76065;SDS011;64763;48.928;8.474;2023-09-08T07:17:59;29.88;;;9.10;;
76065;SDS011;64763;48.928;8.474;2023-09-08T07:20:24;14.57;;;6.80;;
76065;SDS011;64763;48.928;8.474;2023-09-08T07:22:49;11.20;;;7.37;;
76065;SDS011;64763;48.928;8.474;2023-09-08T07:25:14;9.03;;;6.57;;
76065;SDS011;64763;48.928;8.474;2023-09-08T07:27:39;16.25;;;7.50;;
76065;SDS011;64763;48.928;8.474;2023-09-08T07:30:05;10.20;;;7.00;;
76065;SDS011;64763;48.928;8.474;2023-09-08T07:32:30;10.38;;;6.50;;
76065;SDS011;64763;48.928;8.474;2023-09-08T07:34:56;8.75;;;7.25;;
76065;SDS011;64763;48.928;8.474;2023-09-08T07:37:21;10.00;;;6.70;;
76065;SDS011;64763;48.928;8.474;2023-09-08T07:39:47;10.23;;;6.95;;
76065;SDS011;64763;48.928;8.474;2023-09-08T07:42:12;10.00;;;7.38;;
76065;SDS011;64763;48.928;8.474;2023-09-08T07:44:38;10.17;;;6.83;;
76065;SDS011;64763;48.928;8.474;2023-09-08T07:47:03;10.23;;;7.50;;
76065;SDS011;64763;48.928;8.474;2023-09-08T07:49:28;11.02;;;6.65;;
76065;SDS011;64763;48.928;8.474;2023-09-08T07:51:53;8.43;;;6.37;;
76065;SDS011;64763;48.928;8.474;2023-09-08T07:54:18;8.57;;;6.60;;
76065;SDS011;64763;48.928;8.474;2023-09-08T07:56:44;10.63;;;7.20;;
76065;SDS011;64763;48.928;8.474;2023-09-08T07:59:09;11.33;;;7.77;;
76065;SDS011;64763;48.928;8.474;2023-09-08T08:01:34;11.53;;;7.40;;
76065;SDS011;64763;48.928;8.474;2023-09-08T08:04:02;9.85;;;7.55;;
76065;SDS011;64763;48.928;8.474;2023-09-08T08:06:28;8.20;;;6.90;;
76065;SDS011;64763;48.928;8.474;2023-09-08T08:08:53;8.77;;;6.77;;
76065;SDS011;64763;48.928;8.474;2023-09-08T08:11:18;9.87;;;6.90;;
76065;SDS011;64763;48.928;8.474;2023-09-08T08:13:45;11.57;;;7.33;;
76065;SDS011;64763;48.928;8.474;2023-09-08T08:16:10;10.35;;;7.32;;
76065;SDS011;64763;48.928;8.474;2023-09-08T08:18:35;11.75;;;7.07;;
76065;SDS011;64763;48.928;8.474;2023-09-08T08:21:01;8.07;;;6.40;;
76065;SDS011;64763;48.928;8.474;2023-09-08T08:23:28;8.95;;;6.90;;
76065;SDS011;64763;48.928;8.474;2023-09-08T08:25:53;8.47;;;7.10;;
76065;SDS011;64763;48.928;8.474;2023-09-08T08:28:18;9.40;;;6.80;;
76065;SDS011;64763;48.928;8.474;2023-09-08T08:30:44;10.38;;;7.30;;
76065;SDS011;64763;48.928;8.474;2023-09-08T08:33:11;8.95;;;6.90;;
76065;SDS011;64763;48.928;8.474;2023-09-08T08:35:36;9.20;;;7.55;;
76065;SDS011;64763;48.928;8.474;2023-09-08T08:38:01;13.10;;;8.40;;
76065;SDS011;64763;48.928;8.474;2023-09-08T08:40:26;10.32;;;8.38;;
76065;SDS011;64763;48.928;8.474;2023-09-08T08:42:55;9.80;;;7.30;;
76065;SDS011;64763;48.928;8.474;2023-09-08T08:45:22;11.10;;;6.40;;
76065;SDS011;64763;48.928;8.474;2023-09-08T08:47:48;10.85;;;7.40;;
76065;SDS011;64763;48.928;8.474;2023-09-08T08:50:13;8.50;;;6.95;;
76065;SDS011;64763;48.928;8.474;2023-09-08T08:52:39;10.63;;;7.03;;
76065;SDS011;64763;48.928;8.474;2023-09-08T08:55:07;9.93;;;7.53;;
76065;SDS011;64763;48.928;8.474;2023-09-08T08:57:33;10.98;;;7.75;;
76065;SDS011;64763;48.928;8.474;2023-09-08T08:59:59;9.20;;;7.50;;
76065;SDS011;64763;48.928;8.474;2023-09-08T09:02:25;11.38;;;7.07;;
76065;SDS011;64763;48.928;8.474;2023-09-08T09:04:50;8.52;;;6.90;;
76065;SDS011;64763;48.928;8.474;2023-09-08T09:07:15;12.97;;;7.40;;
76065;SDS011;64763;48.928;8.474;2023-09-08T09:09:43;9.25;;;7.95;;
76065;SDS011;64763;48.928;8.474;2023-09-08T09:12:08;9.80;;;7.50;;
76065;SDS011;64763;48.928;8.474;2023-09-08T09:14:33;9.63;;;7.57;;
76065;SDS011;64763;48.928;8.474;2023-09-08T09:16:59;8.75;;;7.15;;
76065;SDS011;64763;48.928;8.474;2023-09-08T09:19:26;8.65;;;7.35;;
76065;SDS011;64763;48.928;8.474;2023-09-08T09:21:56;10.40;;;7.60;;
76065;SDS011;64763;48.928;8.474;2023-09-08T09:24:55;11.20;;;7.28;;
76065;SDS011;64763;48.928;8.474;2023-09-08T09:27:13;9.52;;;7.82;;
76065;SDS011;64763;48.928;8.474;2023-09-08T09:29:45;8.80;;;7.40;;
76065;SDS011;64763;48.928;8.474;2023-09-08T09:32:13;9.80;;;7.40;;
76065;SDS011;64763;48.928;8.474;2023-09-08T09:34:49;7.95;;;6.47;;
76065;SDS011;64763;48.928;8.474;2023-09-08T09:37:15;10.60;;;7.13;;
76065;SDS011;64763;48.928;8.474;2023-09-08T09:39:40;8.43;;;7.40;;
76065;SDS011;64763;48.928;8.474;2023-09-08T09:42:06;10.67;;;7.33;;
76065;SDS011;64763;48.928;8.474;2023-09-08T09:44:31;14.03;;;7.60;;
76065;SDS011;64763;48.928;8.474;2023-09-08T09:46:56;9.23;;;7.30;;
76065;SDS011;64763;48.928;8.474;2023-09-08T09:49:22;10.20;;;7.53;;
76065;SDS011;64763;48.928;8.474;2023-09-08T09:51:49;8.65;;;7.60;;
76065;SDS011;64763;48.928;8.474;2023-09-08T09:54:16;8.68;;;7.20;;
76065;SDS011;64763;48.928;8.474;2023-09-08T09:56:41;8.57;;;6.45;;
76065;SDS011;64763;48.928;8.474;2023-09-08T09:59:10;10.32;;;7.10;;
76065;SDS011;64763;48.928;8.474;2023-09-08T10:01:36;9.77;;;7.60;;
76065;SDS011;64763;48.928;8.474;2023-09-08T10:04:02;8.95;;;7.43;;
76065;SDS011;64763;48.928;8.474;2023-09-08T10:06:29;9.48;;;7.60;;
76065;SDS011;64763;48.928;8.474;2023-09-08T10:08:56;9.38;;;7.60;;
76065;SDS011;64763;48.928;8.474;2023-09-08T10:11:22;8.15;;;6.50;;
76065;SDS011;64763;48.928;8.474;2023-09-08T10:13:49;10.13;;;6.95;;
76065;SDS011;64763;48.928;8.474;2023-09-08T10:16:16;7.90;;;6.65;;
76065;SDS011;64763;48.928;8.474;2023-09-08T10:18:44;8.93;;;7.53;;
76065;SDS011;64763;48.928;8.474;2023-09-08T10:21:09;8.38;;;6.78;;
76065;SDS011;64763;48.928;8.474;2023-09-08T10:23:43;7.75;;;6.50;;
76065;SDS011;64763;48.928;8.474;2023-09-08T10:26:11;8.77;;;6.85;;
76065;SDS011;64763;48.928;8.474;2023-09-08T10:28:37;11.40;;;7.70;;
76065;SDS011;64763;48.928;8.474;2023-09-08T10:31:03;12.20;;;8.15;;
76065;SDS011;64763;48.928;8.474;2023-09-08T10:33:28;11.13;;;7.82;;
76065;SDS011;64763;48.928;8.474;2023-09-08T10:35:55;10.15;;;7.50;;
76065;SDS011;64763;48.928;8.474;2023-09-08T10:38:31;8.38;;;7.03;;
76065;SDS011;64763;48.928;8.474;2023-09-08T10:43:44;10.35;;;7.75;;
76065;SDS011;64763;48.928;8.474;2023-09-08T10:46:10;9.98;;;7.15;;
76065;SDS011;64763;48.928;8.474;2023-09-08T10:48:43;10.40;;;7.55;;
76065;SDS011;64763;48.928;8.474;2023-09-08T10:51:12;9.50;;;7.28;;
76065;SDS011;64763;48.928;8.474;2023-09-08T10:53:38;8.15;;;7.03;;
76065;SDS011;64763;48.928;8.474;2023-09-08T10:56:04;8.77;;;7.10;;
76065;SDS011;64763;48.928;8.474;2023-09-08T10:58:33;9.97;;;7.50;;
76065;SDS011;64763;48.928;8.474;2023-09-08T11:00:58;10.32;;;7.78;;
76065;SDS011;64763;48.928;8.474;2023-09-08T11:06:05;9.60;;;7.28;;
76065;SDS011;64763;48.928;8.474;2023-09-08T11:08:32;8.70;;;6.70;;
76065;SDS011;64763;48.928;8.474;2023-09-08T11:10:58;7.65;;;6.80;;
76065;SDS011;64763;48.928;8.474;2023-09-08T11:13:23;8.47;;;7.20;;
76065;SDS011;64763;48.928;8.474;2023-09-08T11:15:51;8.77;;;6.93;;
76065;SDS011;64763;48.928;8.474;2023-09-08T11:18:16;11.15;;;7.10;;
76065;SDS011;64763;48.928;8.474;2023-09-08T11:20:42;12.70;;;6.40;;
76065;SDS011;64763;48.928;8.474;2023-09-08T11:23:09;10.60;;;7.60;;
76065;SDS011;64763;48.928;8.474;2023-09-08T11:25:35;8.07;;;6.63;;
76065;SDS011;64763;48.928;8.474;2023-09-08T11:28:00;8.27;;;6.53;;
76065;SDS011;64763;48.928;8.474;2023-09-08T11:30:26;8.18;;;6.95;;
76065;SDS011;64763;48.928;8.474;2023-09-08T11:32:51;8.80;;;6.72;;
76065;SDS011;64763;48.928;8.474;2023-09-08T11:35:16;10.03;;;6.90;;
76065;SDS011;64763;48.928;8.474;2023-09-08T11:37:45;10.13;;;6.60;;
76065;SDS011;64763;48.928;8.474;2023-09-08T11:40:11;8.70;;;7.20;;
76065;SDS011;64763;48.928;8.474;2023-09-08T11:42:40;8.57;;;6.80;;
76065;SDS011;64763;48.928;8.474;2023-09-08T11:45:15;9.02;;;7.15;;
76065;SDS011;64763;48.928;8.474;2023-09-08T11:47:43;10.68;;;7.72;;
76065;SDS011;64763;48.928;8.474;2023-09-08T11:50:09;8.60;;;7.00;;
76065;SDS011;64763;48.928;8.474;2023-09-08T11:52:36;8.88;;;7.40;;
76065;SDS011;64763;48.928;8.474;2023-09-08T11:55:01;9.52;;;7.30;;
76065;SDS011;64763;48.928;8.474;2023-09-08T11:57:27;9.03;;;6.97;;
76065;SDS011;64763;48.928;8.474;2023-09-08T11:59:53;9.82;;;7.25;;
76065;SDS011;64763;48.928;8.474;2023-09-08T12:02:18;7.90;;;7.15;;
76065;SDS011;64763;48.928;8.474;2023-09-08T12:04:44;8.10;;;7.30;;
76065;SDS011;64763;48.928;8.474;2023-09-08T12:07:12;9.25;;;7.05;;
76065;SDS011;64763;48.928;8.474;2023-09-08T12:09:40;9.48;;;7.07;;
76065;SDS011;64763;48.928;8.474;2023-09-08T12:12:05;9.63;;;7.30;;
76065;SDS011;64763;48.928;8.474;2023-09-08T12:14:39;8.40;;;7.20;;
76065;SDS011;64763;48.928;8.474;2023-09-08T12:17:05;9.45;;;7.85;;
76065;SDS011;64763;48.928;8.474;2023-09-08T12:19:33;10.07;;;7.30;;
76065;SDS011;64763;48.928;8.474;2023-09-08T12:22:02;9.45;;;7.47;;
76065;SDS011;64763;48.928;8.474;2023-09-08T12:29:36;9.95;;;7.18;;
76065;SDS011;64763;48.928;8.474;2023-09-08T12:32:01;9.33;;;6.80;;
76065;SDS011;64763;48.928;8.474;2023-09-08T12:34:27;9.80;;;6.90;;
76065;SDS011;64763;48.928;8.474;2023-09-08T12:36:52;9.38;;;7.32;;
76065;SDS011;64763;48.928;8.474;2023-09-08T12:39:20;10.55;;;7.03;;
76065;SDS011;64763;48.928;8.474;2023-09-08T12:41:45;9.80;;;7.73;;
76065;SDS011;64763;48.928;8.474;2023-09-08T12:44:10;8.77;;;6.73;;
76065;SDS011;64763;48.928;8.474;2023-09-08T12:46:35;9.88;;;7.15;;
76065;SDS011;64763;48.928;8.474;2023-09-08T12:49:01;8.77;;;7.53;;
76065;SDS011;64763;48.928;8.474;2023-09-08T12:51:26;12.90;;;6.93;;
76065;SDS011;64763;48.928;8.474;2023-09-08T12:53:51;8.97;;;7.10;;
76065;SDS011;64763;48.928;8.474;2023-09-08T12:56:16;8.07;;;6.77;;
76065;SDS011;64763;48.928;8.474;2023-09-08T12:58:43;7.93;;;6.38;;
76065;SDS011;64763;48.928;8.474;2023-09-08T13:01:08;7.43;;;6.60;;
76065;SDS011;64763;48.928;8.474;2023-09-08T13:03:33;8.10;;;6.93;;
76065;SDS011;64763;48.928;8.474;2023-09-08T13:05:58;8.80;;;7.13;;
76065;SDS011;64763;48.928;8.474;2023-09-08T13:08:23;8.90;;;6.60;;
76065;SDS011;64763;48.928;8.474;2023-09-08T13:10:49;10.47;;;7.13;;
76065;SDS011;64763;48.928;8.474;2023-09-08T13:13:14;8.47;;;6.97;;
76065;SDS011;64763;48.928;8.474;2023-09-08T13:15:39;8.20;;;7.10;;
76065;SDS011;64763;48.928;8.474;2023-09-08T13:18:04;8.73;;;7.47;;
76065;SDS011;64763;48.928;8.474;2023-09-08T13:20:30;10.02;;;7.07;;
76065;SDS011;64763;48.928;8.474;2023-09-08T13:22:55;9.85;;;6.90;;
76065;SDS011;64763;48.928;8.474;2023-09-08T13:25:20;9.50;;;6.53;;
76065;SDS011;64763;48.928;8.474;2023-09-08T13:27:45;8.03;;;6.20;;
76065;SDS011;64763;48.928;8.474;2023-09-08T13:30:13;7.47;;;6.43;;
76065;SDS011;64763;48.928;8.474;2023-09-08T13:32:39;8.15;;;6.57;;
76065;SDS011;64763;48.928;8.474;2023-09-08T13:35:05;7.85;;;6.85;;
76065;SDS011;64763;48.928;8.474;2023-09-08T13:37:30;7.90;;;6.90;;
76065;SDS011;64763;48.928;8.474;2023-09-08T13:39:56;7.67;;;6.57;;
76065;SDS011;64763;48.928;8.474;2023-09-08T13:42:21;7.57;;;6.53;;
76065;SDS011;64763;48.928;8.474;2023-09-08T13:44:46;9.77;;;6.83;;
76065;SDS011;64763;48.928;8.474;2023-09-08T13:47:12;8.20;;;6.53;;
76065;SDS011;64763;48.928;8.474;2023-09-08T13:49:37;8.50;;;6.83;;
76065;SDS011;64763;48.928;8.474;2023-09-08T13:52:02;9.00;;;6.60;;
76065;SDS011;64763;48.928;8.474;2023-09-08T13:54:27;8.30;;;7.00;;
76065;SDS011;64763;48.928;8.474;2023-09-08T13:57:02;7.97;;;6.30;;
76065;SDS011;64763;48.928;8.474;2023-09-08T13:59:28;7.97;;;6.68;;
76065;SDS011;64763;48.928;8.474;2023-09-08T14:01:54;9.25;;;6.45;;
76065;SDS011;64763;48.928;8.474;2023-09-08T14:04:19;7.67;;;6.23;;
76065;SDS011;64763;48.928;8.474;2023-09-08T14:06:44;8.30;;;6.37;;
76065;SDS011;64763;48.928;8.474;2023-09-08T14:09:09;8.67;;;6.80;;
76065;SDS011;64763;48.928;8.474;2023-09-08T14:11:34;7.43;;;6.03;;
76065;SDS011;64763;48.928;8.474;2023-09-08T14:14:00;7.27;;;6.50;;
76065;SDS011;64763;48.928;8.474;2023-09-08T14:16:25;7.83;;;6.30;;
76065;SDS011;64763;48.928;8.474;2023-09-08T14:18:50;6.70;;;6.00;;
76065;SDS011;64763;48.928;8.474;2023-09-08T14:21:15;8.83;;;6.80;;
76065;SDS011;64763;48.928;8.474;2023-09-08T14:23:40;9.60;;;6.93;;
76065;SDS011;64763;48.928;8.474;2023-09-08T14:26:06;7.72;;;6.15;;
76065;SDS011;64763;48.928;8.474;2023-09-08T14:28:32;10.63;;;6.93;;
76065;SDS011;64763;48.928;8.474;2023-09-08T14:30:57;13.23;;;6.33;;
76065;SDS011;64763;48.928;8.474;2023-09-08T14:33:22;8.23;;;6.65;;
76065;SDS011;64763;48.928;8.474;2023-09-08T14:35:48;7.13;;;6.03;;
76065;SDS011;64763;48.928;8.474;2023-09-08T14:38:16;7.38;;;6.53;;
76065;SDS011;64763;48.928;8.474;2023-09-08T14:40:41;7.88;;;6.35;;
76065;SDS011;64763;48.928;8.474;2023-09-08T14:43:07;10.43;;;6.73;;
76065;SDS011;64763;48.928;8.474;2023-09-08T14:45:32;10.93;;;6.23;;